createdAt,value
2019-03-05T00:00:30.440Z,809.24
2019-03-05T00:01:30.442Z,809.23
2019-03-05T00:02:30.444Z,809.19
2019-03-05T00:03:30.447Z,809.23
2019-03-05T00:04:30.455Z,809.21
2019-03-05T00:05:30.456Z,809.25
2019-03-05T00:06:30.462Z,809.26
2019-03-05T00:07:30.461Z,809.15
2019-03-05T00:08:30.469Z,809.13
2019-03-05T00:09:30.469Z,809.23
2019-03-05T00:10:30.472Z,809.28
2019-03-05T00:11:30.476Z,809.19
2019-03-05T00:12:30.487Z,809.17
2019-03-05T00:13:30.484Z,809.14
2019-03-05T00:14:30.492Z,809.11
2019-03-05T00:15:30.494Z,809.22
2019-03-05T00:16:30.495Z,809.15
2019-03-05T00:17:30.498Z,809.16
2019-03-05T00:18:30.501Z,809.08
2019-03-05T00:19:30.507Z,809.15
2019-03-05T00:20:30.512Z,809.12
2019-03-05T00:21:30.513Z,809.13
2019-03-05T00:22:30.520Z,809.12
2019-03-05T00:23:30.523Z,809.07
2019-03-05T00:24:30.525Z,809.13
2019-03-05T00:25:30.531Z,809.18
2019-03-05T00:26:30.532Z,809.09
2019-03-05T00:27:30.534Z,809.09
2019-03-05T00:28:30.540Z,809.05
2019-03-05T00:29:30.543Z,809.03
2019-03-05T00:30:30.546Z,809.06
2019-03-05T00:31:30.549Z,809.01
2019-03-05T00:32:30.558Z,809.08
2019-03-05T00:33:32.705Z,809.09
2019-03-05T00:34:30.564Z,808.98
2019-03-05T00:35:30.564Z,809.03
2019-03-05T00:36:30.567Z,809.01
2019-03-05T00:37:30.574Z,808.99
2019-03-05T00:38:30.579Z,808.98
2019-03-05T00:39:30.580Z,808.98
2019-03-05T00:40:30.584Z,808.98
2019-03-05T00:41:30.592Z,808.98
2019-03-05T00:42:30.591Z,809.03
2019-03-05T00:43:30.592Z,809.04
2019-03-05T00:44:30.598Z,808.97
2019-03-05T00:45:30.602Z,809.01
2019-03-05T00:46:30.608Z,808.91
2019-03-05T00:47:30.611Z,808.92
2019-03-05T00:48:30.611Z,808.86
2019-03-05T00:49:30.623Z,808.92
2019-03-05T00:50:30.624Z,808.95
2019-03-05T00:51:30.623Z,808.96
2019-03-05T00:52:30.628Z,809.01
2019-03-05T00:53:30.636Z,808.97
2019-03-05T00:54:30.640Z,809.01
2019-03-05T00:55:30.642Z,809.00
2019-03-05T00:56:30.649Z,808.99
2019-03-05T00:57:30.646Z,809.07
2019-03-05T00:58:30.648Z,809.06
2019-03-05T00:59:30.656Z,809.01
2019-03-05T01:00:30.657Z,809.02
2019-03-05T01:01:30.661Z,808.94
2019-03-05T01:02:30.676Z,808.86
2019-03-05T01:03:30.672Z,808.90
2019-03-05T01:04:30.678Z,808.90
2019-03-05T01:05:30.676Z,808.88
2019-03-05T01:06:30.682Z,808.84
2019-03-05T01:07:30.686Z,808.83
2019-03-05T01:08:30.687Z,808.95
2019-03-05T01:09:30.690Z,808.81
2019-03-05T01:10:30.702Z,808.79
2019-03-05T01:11:30.707Z,808.81
2019-03-05T01:12:30.720Z,808.79
2019-03-05T01:13:30.708Z,808.86
2019-03-05T01:14:30.713Z,808.83
2019-03-05T01:15:30.717Z,808.80
2019-03-05T01:16:30.724Z,808.81
2019-03-05T01:17:30.731Z,808.78
2019-03-05T01:18:30.725Z,808.80
2019-03-05T01:19:30.729Z,808.88
2019-03-05T01:20:30.733Z,808.90
2019-03-05T01:21:30.737Z,808.85
2019-03-05T01:22:30.738Z,808.85
2019-03-05T01:23:30.750Z,808.79
2019-03-05T01:24:30.745Z,808.81
2019-03-05T01:25:30.752Z,808.76
2019-03-05T01:26:30.754Z,808.83
2019-03-05T01:27:30.755Z,808.79
2019-03-05T01:28:30.763Z,808.78
2019-03-05T01:29:30.763Z,808.75
2019-03-05T01:30:30.773Z,808.77
2019-03-05T01:31:30.775Z,808.81
2019-03-05T01:32:30.783Z,808.88
2019-03-05T01:33:30.784Z,808.82
2019-03-05T01:34:30.787Z,808.80
2019-03-05T01:35:30.788Z,808.75
2019-03-05T01:36:30.791Z,808.71
2019-03-05T01:37:30.794Z,808.74
2019-03-05T01:38:30.804Z,808.66
2019-03-05T01:39:30.804Z,808.68
2019-03-05T01:40:30.818Z,808.73
2019-03-05T01:41:30.810Z,808.67
2019-03-05T01:42:30.815Z,808.66
2019-03-05T01:43:30.821Z,808.64
2019-03-05T01:44:30.833Z,808.61
2019-03-05T01:45:30.836Z,808.61
2019-03-05T01:46:30.825Z,808.59
2019-03-05T01:47:30.833Z,808.59
2019-03-05T01:48:30.836Z,808.54
2019-03-05T01:49:30.838Z,808.59
2019-03-05T01:50:30.841Z,808.54
2019-03-05T01:51:30.843Z,808.57
2019-03-05T01:52:30.855Z,808.51
2019-03-05T01:53:30.851Z,808.49
2019-03-05T01:54:30.859Z,808.46
2019-03-05T01:55:30.859Z,808.47
2019-03-05T01:56:30.865Z,808.49
2019-03-05T01:57:30.870Z,808.51
2019-03-05T01:58:30.872Z,808.49
2019-03-05T01:59:30.874Z,808.47
2019-03-05T02:00:30.890Z,808.47
2019-03-05T02:01:30.900Z,808.43
2019-03-05T02:02:30.886Z,808.48
2019-03-05T02:03:30.892Z,808.53
2019-03-05T02:04:30.897Z,808.51
2019-03-05T02:05:30.901Z,808.53
2019-03-05T02:06:30.900Z,808.54
2019-03-05T02:07:30.909Z,808.54
2019-03-05T02:08:30.913Z,808.52
2019-03-05T02:09:30.918Z,808.51
2019-03-05T02:10:30.919Z,808.51
2019-03-05T02:11:30.924Z,808.60
2019-03-05T02:12:30.928Z,808.58
2019-03-05T02:13:30.934Z,808.62
2019-03-05T02:14:30.936Z,808.60
2019-03-05T02:15:30.937Z,808.60
2019-03-05T02:16:30.946Z,808.54
2019-03-05T02:17:30.950Z,808.58
2019-03-05T02:18:30.953Z,808.57
2019-03-05T02:19:30.954Z,808.61
2019-03-05T02:20:30.959Z,808.65
2019-03-05T02:21:30.967Z,808.60
2019-03-05T02:22:30.964Z,808.55
2019-03-05T02:23:30.968Z,808.62
2019-03-05T02:24:30.976Z,808.55
2019-03-05T02:25:30.980Z,808.55
2019-03-05T02:26:30.981Z,808.57
2019-03-05T02:27:30.993Z,808.53
2019-03-05T02:28:30.993Z,808.52
2019-03-05T02:29:30.997Z,808.48
2019-03-05T02:30:31.003Z,808.52
2019-03-05T02:31:31.002Z,808.61
2019-03-05T02:32:31.007Z,808.55
2019-03-05T02:33:31.014Z,808.56
2019-03-05T02:34:31.014Z,808.61
2019-03-05T02:35:31.022Z,808.61
2019-03-05T02:36:31.033Z,808.68
2019-03-05T02:37:31.030Z,808.53
2019-03-05T02:38:31.033Z,808.62
2019-03-05T02:39:31.036Z,808.60
2019-03-05T02:40:31.047Z,808.67
2019-03-05T02:41:31.039Z,808.64
2019-03-05T02:42:31.043Z,808.72
2019-03-05T02:43:31.050Z,808.78
2019-03-05T02:44:31.057Z,808.93
2019-03-05T02:45:31.744Z,808.82
2019-03-05T02:46:31.060Z,808.85
2019-03-05T02:47:31.072Z,808.76
2019-03-05T02:48:31.065Z,808.74
2019-03-05T02:49:31.083Z,808.71
2019-03-05T02:50:31.072Z,808.71
2019-03-05T02:51:31.077Z,808.67
2019-03-05T02:52:31.084Z,808.77
2019-03-05T02:53:31.092Z,808.69
2019-03-05T02:54:31.092Z,808.78
2019-03-05T02:55:31.094Z,808.84
2019-03-05T02:56:31.097Z,808.72
2019-03-05T02:57:31.104Z,808.74
2019-03-05T02:58:31.105Z,808.77
2019-03-05T02:59:31.109Z,808.71
2019-03-05T03:00:31.114Z,808.73
2019-03-05T03:01:31.112Z,808.68
2019-03-05T03:02:31.114Z,808.71
2019-03-05T03:03:31.123Z,808.74
2019-03-05T03:04:31.122Z,808.75
2019-03-05T03:05:31.132Z,808.64
2019-03-05T03:06:31.137Z,808.65
2019-03-05T03:07:31.136Z,808.74
2019-03-05T03:08:31.141Z,808.77
2019-03-05T03:09:31.145Z,808.79
2019-03-05T03:10:31.145Z,808.75
2019-03-05T03:11:31.151Z,808.85
2019-03-05T03:12:31.157Z,808.82
2019-03-05T03:13:31.162Z,808.81
2019-03-05T03:14:31.160Z,808.83
2019-03-05T03:15:31.167Z,808.95
2019-03-05T03:16:31.170Z,808.88
2019-03-05T03:17:31.174Z,808.89
2019-03-05T03:18:31.178Z,808.79
2019-03-05T03:19:31.177Z,808.89
2019-03-05T03:20:31.181Z,808.64
2019-03-05T03:21:31.184Z,808.74
2019-03-05T03:22:31.299Z,808.82
2019-03-05T03:23:31.206Z,808.72
2019-03-05T03:24:31.204Z,808.74
2019-03-05T03:25:31.200Z,808.48
2019-03-05T03:26:31.206Z,808.69
2019-03-05T03:27:31.206Z,808.73
2019-03-05T03:28:31.227Z,808.80
2019-03-05T03:29:31.212Z,808.84
2019-03-05T03:30:31.238Z,808.82
2019-03-05T03:31:31.222Z,808.81
2019-03-05T03:32:31.229Z,808.79
2019-03-05T03:33:31.253Z,808.78
2019-03-05T03:34:31.241Z,808.69
2019-03-05T03:35:31.237Z,808.70
2019-03-05T03:36:31.249Z,808.84
2019-03-05T03:37:31.243Z,808.73
2019-03-05T03:38:31.243Z,808.70
2019-03-05T03:39:31.266Z,808.67
2019-03-05T03:40:31.249Z,808.62
2019-03-05T03:41:31.256Z,808.60
2019-03-05T03:42:31.260Z,808.67
2019-03-05T03:43:31.269Z,808.63
2019-03-05T03:44:31.265Z,808.61
2019-03-05T03:45:31.270Z,808.57
2019-03-05T03:46:31.273Z,808.55
2019-03-05T03:47:31.279Z,808.61
2019-03-05T03:48:31.284Z,808.58
2019-03-05T03:49:31.279Z,808.66
2019-03-05T03:50:31.284Z,808.62
2019-03-05T03:51:31.294Z,808.54
2019-03-05T03:52:31.286Z,808.50
2019-03-05T03:53:31.294Z,808.50
2019-03-05T03:54:31.297Z,808.44
2019-03-05T03:55:31.304Z,808.46
2019-03-05T03:56:31.310Z,808.45
2019-03-05T03:57:31.306Z,808.53
2019-03-05T03:58:31.316Z,808.52
2019-03-05T03:59:31.318Z,808.52
2019-03-05T04:00:31.322Z,808.52
2019-03-05T04:01:31.322Z,808.48
2019-03-05T04:02:31.321Z,808.55
2019-03-05T04:03:31.332Z,808.56
2019-03-05T04:04:31.334Z,808.55
2019-03-05T04:05:31.337Z,808.50
2019-03-05T04:06:31.339Z,808.48
2019-03-05T04:07:31.342Z,808.48
2019-03-05T04:08:31.343Z,808.48
2019-03-05T04:09:31.352Z,808.49
2019-03-05T04:10:31.353Z,808.53
2019-03-05T04:11:31.359Z,808.57
2019-03-05T04:12:31.356Z,808.55
2019-03-05T04:13:31.365Z,808.59
2019-03-05T04:14:31.370Z,808.55
2019-03-05T04:15:31.372Z,808.65
2019-03-05T04:16:31.373Z,808.69
2019-03-05T04:17:31.383Z,808.73
2019-03-05T04:18:31.383Z,808.68
2019-03-05T04:19:31.392Z,808.72
2019-03-05T04:20:31.391Z,808.76
2019-03-05T04:21:31.392Z,808.69
2019-03-05T04:22:31.400Z,808.69
2019-03-05T04:23:31.523Z,808.66
2019-03-05T04:24:31.402Z,808.66
2019-03-05T04:25:31.407Z,808.61
2019-03-05T04:26:31.408Z,808.60
2019-03-05T04:27:31.412Z,808.52
2019-03-05T04:28:31.416Z,808.61
2019-03-05T04:29:31.421Z,808.59
2019-03-05T04:30:31.424Z,808.67
2019-03-05T04:31:31.427Z,808.59
2019-03-05T04:32:31.433Z,808.58
2019-03-05T04:33:31.437Z,808.56
2019-03-05T04:34:31.435Z,808.55
2019-03-05T04:35:31.436Z,808.67
2019-03-05T04:36:31.440Z,808.69
2019-03-05T04:37:31.446Z,808.72
2019-03-05T04:38:31.450Z,808.69
2019-03-05T04:39:31.449Z,808.71
2019-03-05T04:40:31.455Z,808.70
2019-03-05T04:41:31.456Z,808.71
2019-03-05T04:42:31.463Z,808.66
2019-03-05T04:43:31.464Z,808.66
2019-03-05T04:44:31.468Z,808.64
2019-03-05T04:45:31.471Z,808.62
2019-03-05T04:46:31.475Z,808.66
2019-03-05T04:47:31.479Z,808.64
2019-03-05T04:48:31.485Z,808.71
2019-03-05T04:49:31.488Z,808.66
2019-03-05T04:50:31.491Z,808.64
2019-03-05T04:51:31.495Z,808.66
2019-03-05T04:52:31.493Z,808.71
2019-03-05T04:53:31.501Z,808.70
2019-03-05T04:54:31.504Z,808.76
2019-03-05T04:55:31.509Z,808.73
2019-03-05T04:56:31.515Z,808.73
2019-03-05T04:57:31.516Z,808.74
2019-03-05T04:58:31.519Z,808.81
2019-03-05T04:59:31.517Z,808.75
2019-03-05T05:00:31.522Z,808.76
2019-03-05T05:01:31.528Z,808.83
2019-03-05T05:02:31.529Z,808.83
2019-03-05T05:03:31.531Z,808.87
2019-03-05T05:04:31.539Z,808.79
2019-03-05T05:05:31.542Z,808.84
2019-03-05T05:06:31.542Z,808.87
2019-03-05T05:07:31.551Z,808.91
2019-03-05T05:08:31.550Z,808.95
2019-03-05T05:09:31.557Z,808.86
2019-03-05T05:10:31.562Z,809.04
2019-03-05T05:11:31.562Z,808.90
2019-03-05T05:12:31.564Z,808.90
2019-03-05T05:13:31.573Z,808.97
2019-03-05T05:14:31.575Z,808.94
2019-03-05T05:15:31.574Z,808.91
2019-03-05T05:16:31.578Z,808.87
2019-03-05T05:17:31.582Z,808.86
2019-03-05T05:18:31.584Z,808.91
2019-03-05T05:19:31.595Z,808.92
2019-03-05T05:20:31.595Z,808.93
2019-03-05T05:21:31.596Z,808.90
2019-03-05T05:22:31.601Z,808.92
2019-03-05T05:23:31.603Z,808.89
2019-03-05T05:24:31.613Z,808.95
2019-03-05T05:25:31.616Z,808.85
2019-03-05T05:26:31.616Z,808.84
2019-03-05T05:27:31.619Z,808.82
2019-03-05T05:28:31.623Z,808.91
2019-03-05T05:29:31.628Z,808.74
2019-03-05T05:30:31.637Z,808.78
2019-03-05T05:31:31.637Z,808.74
2019-03-05T05:32:31.636Z,808.83
2019-03-05T05:33:31.643Z,808.86
2019-03-05T05:34:31.646Z,808.89
2019-03-05T05:35:31.644Z,808.84
2019-03-05T05:36:31.657Z,808.86
2019-03-05T05:37:31.656Z,808.81
2019-03-05T05:38:31.659Z,808.89
2019-03-05T05:39:31.662Z,808.91
2019-03-05T05:40:31.665Z,808.97
2019-03-05T05:41:31.668Z,808.93
2019-03-05T05:42:31.672Z,808.95
2019-03-05T05:43:31.675Z,809.10
2019-03-05T05:44:31.681Z,809.05
2019-03-05T05:45:31.685Z,809.01
2019-03-05T05:46:31.691Z,809.03
2019-03-05T05:47:31.694Z,809.02
2019-03-05T05:48:31.695Z,809.00
2019-03-05T05:49:31.705Z,808.99
2019-03-05T05:50:31.698Z,808.95
2019-03-05T05:51:31.700Z,809.04
2019-03-05T05:52:31.705Z,808.98
2019-03-05T05:53:31.713Z,809.00
2019-03-05T05:54:31.711Z,808.97
2019-03-05T05:55:31.721Z,808.93
2019-03-05T05:56:31.724Z,809.00
2019-03-05T05:57:31.731Z,809.01
2019-03-05T05:58:31.724Z,809.02
2019-03-05T05:59:31.729Z,809.11
2019-03-05T06:00:31.733Z,809.01
2019-03-05T06:01:31.740Z,808.95
2019-03-05T06:02:31.742Z,808.97
2019-03-05T06:03:31.743Z,808.95
2019-03-05T06:04:31.747Z,808.91
2019-03-05T06:05:31.751Z,808.94
2019-03-05T06:06:31.760Z,808.94
2019-03-05T06:07:31.763Z,808.94
2019-03-05T06:08:31.771Z,809.02
2019-03-05T06:09:31.764Z,808.96
2019-03-05T06:10:31.770Z,808.98
2019-03-05T06:11:31.775Z,808.99
2019-03-05T06:12:31.773Z,809.07
2019-03-05T06:13:31.792Z,809.12
2019-03-05T06:14:31.781Z,809.10
2019-03-05T06:15:31.789Z,809.05
2019-03-05T06:16:31.795Z,809.02
2019-03-05T06:17:31.792Z,808.96
2019-03-05T06:18:31.794Z,809.05
2019-03-05T06:19:31.812Z,809.10
2019-03-05T06:20:31.801Z,809.06
2019-03-05T06:21:31.809Z,809.16
2019-03-05T06:22:31.825Z,809.13
2019-03-05T06:23:31.817Z,809.11
2019-03-05T06:24:31.816Z,809.13
2019-03-05T06:25:31.834Z,809.18
2019-03-05T06:26:31.830Z,809.15
2019-03-05T06:27:31.828Z,809.06
2019-03-05T06:28:31.830Z,809.21
2019-03-05T06:29:31.834Z,809.14
2019-03-05T06:30:31.841Z,809.16
2019-03-05T06:31:31.842Z,809.18
2019-03-05T06:32:31.848Z,809.13
2019-03-05T06:33:31.851Z,809.15
2019-03-05T06:34:31.849Z,809.20
2019-03-05T06:35:31.857Z,809.19
2019-03-05T06:36:31.861Z,809.22
2019-03-05T06:37:33.119Z,809.21
2019-03-05T06:38:31.867Z,809.21
2019-03-05T06:39:31.871Z,809.17
2019-03-05T06:40:31.876Z,809.25
2019-03-05T06:41:31.877Z,809.21
2019-03-05T06:42:31.881Z,809.24
2019-03-05T06:43:31.882Z,809.16
2019-03-05T06:44:31.889Z,809.22
2019-03-05T06:45:31.894Z,809.19
2019-03-05T06:46:31.891Z,809.26
2019-03-05T06:47:31.899Z,809.33
2019-03-05T06:48:31.907Z,809.35
2019-03-05T06:49:31.906Z,809.29
2019-03-05T06:50:31.910Z,809.33
2019-03-05T06:51:31.916Z,809.30
2019-03-05T06:52:31.915Z,809.30
2019-03-05T06:53:31.922Z,809.39
2019-03-05T06:54:31.930Z,809.38
2019-03-05T06:55:31.932Z,809.41
2019-03-05T06:56:31.929Z,809.36
2019-03-05T06:57:31.933Z,809.41
2019-03-05T06:58:31.940Z,809.44
2019-03-05T06:59:31.946Z,809.41
2019-03-05T07:00:31.944Z,809.44
2019-03-05T07:01:31.948Z,809.41
2019-03-05T07:02:31.950Z,809.40
2019-03-05T07:03:31.958Z,809.37
2019-03-05T07:04:31.958Z,809.38
2019-03-05T07:05:31.963Z,809.34
2019-03-05T07:06:31.968Z,809.38
2019-03-05T07:07:31.982Z,809.40
2019-03-05T07:08:31.973Z,809.42
2019-03-05T07:09:31.981Z,809.36
2019-03-05T07:10:31.980Z,809.45
2019-03-05T07:11:31.985Z,809.44
2019-03-05T07:12:31.988Z,809.54
2019-03-05T07:13:31.993Z,809.42
2019-03-05T07:14:32.001Z,809.41
2019-03-05T07:15:32.001Z,809.42
2019-03-05T07:16:32.003Z,809.42
2019-03-05T07:17:32.009Z,809.43
2019-03-05T07:18:32.015Z,809.41
2019-03-05T07:19:32.019Z,809.47
2019-03-05T07:20:32.023Z,809.48
2019-03-05T07:21:32.030Z,809.53
2019-03-05T07:22:32.028Z,809.52
2019-03-05T07:23:32.033Z,809.48
2019-03-05T07:24:32.034Z,809.55
2019-03-05T07:25:32.040Z,809.57
2019-03-05T07:26:32.045Z,809.52
2019-03-05T07:27:32.052Z,809.56
2019-03-05T07:28:32.049Z,809.59
2019-03-05T07:29:32.059Z,809.59
2019-03-05T07:30:32.058Z,809.59
2019-03-05T07:31:32.064Z,809.58
2019-03-05T07:32:32.068Z,809.60
2019-03-05T07:33:32.070Z,809.61
2019-03-05T07:34:32.076Z,809.62
2019-03-05T07:35:32.079Z,809.66
2019-03-05T07:36:32.084Z,809.66
2019-03-05T07:37:32.088Z,809.65
2019-03-05T07:38:32.091Z,809.69
2019-03-05T07:39:32.092Z,809.62
2019-03-05T07:40:32.102Z,809.67
2019-03-05T07:41:32.107Z,809.68
2019-03-05T07:42:32.107Z,809.63
2019-03-05T07:43:36.528Z,809.68
2019-03-05T07:44:32.116Z,809.66
2019-03-05T07:45:32.122Z,809.62
2019-03-05T07:46:32.120Z,809.69
2019-03-05T07:47:32.128Z,809.65
2019-03-05T07:48:32.131Z,809.69
2019-03-05T07:49:42.937Z,809.69
2019-03-05T07:50:32.142Z,809.70
2019-03-05T07:51:32.147Z,809.77
2019-03-05T07:52:32.145Z,809.80
2019-03-05T07:53:32.153Z,809.79
2019-03-05T07:54:32.157Z,809.84
2019-03-05T07:55:32.163Z,809.82
2019-03-05T07:56:32.163Z,809.90
2019-03-05T07:57:32.233Z,809.83
2019-03-05T07:58:32.176Z,809.87
2019-03-05T07:59:32.183Z,809.85
2019-03-05T08:00:32.182Z,809.89
2019-03-05T08:01:32.189Z,809.87
2019-03-05T08:02:32.191Z,809.89
2019-03-05T08:03:32.194Z,809.85
2019-03-05T08:04:32.208Z,809.92
2019-03-05T08:05:32.206Z,809.94
2019-03-05T08:06:32.216Z,809.89
2019-03-05T08:07:32.214Z,810.02
2019-03-05T08:08:32.221Z,809.98
2019-03-05T08:09:32.228Z,809.95
2019-03-05T08:10:32.231Z,809.92
2019-03-05T08:11:32.236Z,809.96
2019-03-05T08:12:32.239Z,809.92
2019-03-05T08:13:32.251Z,809.96
2019-03-05T08:14:32.249Z,809.89
2019-03-05T08:15:32.256Z,809.95
2019-03-05T08:16:32.259Z,809.97
2019-03-05T08:17:32.268Z,809.98
2019-03-05T08:18:32.271Z,809.94
2019-03-05T08:19:32.278Z,810.01
2019-03-05T08:20:32.279Z,810.01
2019-03-05T08:21:32.294Z,809.98
2019-03-05T08:22:32.290Z,810.01
2019-03-05T08:23:32.294Z,810.01
2019-03-05T08:24:32.305Z,810.01
2019-03-05T08:25:32.309Z,810.00
2019-03-05T08:26:32.391Z,809.99
2019-03-05T08:27:32.328Z,810.00
2019-03-05T08:28:32.332Z,810.02
2019-03-05T08:29:32.330Z,810.09
2019-03-05T08:30:32.334Z,810.05
2019-03-05T08:31:32.338Z,810.06
2019-03-05T08:32:32.343Z,810.04
2019-03-05T08:33:32.350Z,810.06
2019-03-05T08:34:32.356Z,810.13
2019-03-05T08:35:32.371Z,810.10
2019-03-05T08:36:32.370Z,810.13
2019-03-05T08:37:32.373Z,810.13
2019-03-05T08:38:32.381Z,810.16
2019-03-05T08:39:32.383Z,810.17
2019-03-05T08:40:32.390Z,810.23
2019-03-05T08:41:32.400Z,810.20
2019-03-05T08:42:32.406Z,810.19
2019-03-05T08:43:32.407Z,810.17
2019-03-05T08:44:32.417Z,810.21
2019-03-05T08:45:32.421Z,810.19
2019-03-05T08:46:32.429Z,810.20
2019-03-05T08:47:32.439Z,810.18
2019-03-05T08:48:32.441Z,810.18
2019-03-05T08:49:32.445Z,810.19
2019-03-05T08:50:32.450Z,810.20
2019-03-05T08:51:32.460Z,810.21
2019-03-05T08:52:32.466Z,810.19
2019-03-05T08:53:32.470Z,810.23
2019-03-05T08:54:32.478Z,810.25
2019-03-05T08:55:32.483Z,810.27
2019-03-05T08:56:32.490Z,810.29
2019-03-05T08:57:32.495Z,810.26
2019-03-05T08:58:32.503Z,810.25
2019-03-05T08:59:32.821Z,810.27
2019-03-05T09:00:32.516Z,810.30
2019-03-05T09:01:32.522Z,810.34
2019-03-05T09:02:32.530Z,810.32
2019-03-05T09:03:32.540Z,810.36
2019-03-05T09:04:32.546Z,810.37
2019-03-05T09:05:32.552Z,810.41
2019-03-05T09:06:32.559Z,810.38
2019-03-05T09:07:32.562Z,810.34
2019-03-05T09:08:32.568Z,810.34
2019-03-05T09:09:32.577Z,810.36
2019-03-05T09:10:32.587Z,810.32
2019-03-05T09:11:32.590Z,810.37
2019-03-05T09:12:32.600Z,810.39
2019-03-05T09:13:33.277Z,810.40
2019-03-05T09:14:34.445Z,810.40
2019-03-05T09:15:32.617Z,810.38
2019-03-05T09:16:32.624Z,810.34
2019-03-05T09:17:32.636Z,810.34
2019-03-05T09:18:32.639Z,810.36
2019-03-05T09:19:32.645Z,810.32
2019-03-05T09:20:32.729Z,810.28
2019-03-05T09:21:32.666Z,810.27
2019-03-05T09:22:32.675Z,810.30
2019-03-05T09:23:32.675Z,810.26
2019-03-05T09:24:32.682Z,810.34
2019-03-05T09:25:32.690Z,810.32
2019-03-05T09:26:32.697Z,810.33
2019-03-05T09:27:32.704Z,810.34
2019-03-05T09:28:32.714Z,810.29
2019-03-05T09:29:32.718Z,810.28
2019-03-05T09:30:32.729Z,810.29
2019-03-05T09:31:32.733Z,810.27
2019-03-05T09:32:32.746Z,810.32
2019-03-05T09:33:32.749Z,810.33
2019-03-05T09:34:32.758Z,810.31
2019-03-05T09:35:32.763Z,810.34
2019-03-05T09:36:32.772Z,810.38
2019-03-05T09:37:32.779Z,810.37
2019-03-05T09:38:32.789Z,810.42
2019-03-05T09:39:32.794Z,810.47
2019-03-05T09:40:32.806Z,810.48
2019-03-05T09:41:32.814Z,810.48
2019-03-05T09:42:39.905Z,810.54
2019-03-05T09:43:32.829Z,810.59
2019-03-05T09:44:32.836Z,810.57
2019-03-05T09:45:32.848Z,810.60
2019-03-05T09:46:32.853Z,810.62
2019-03-05T09:47:32.862Z,810.60
2019-03-05T09:48:32.871Z,810.60
2019-03-05T09:49:32.876Z,810.57
2019-03-05T09:50:32.886Z,810.63
2019-03-05T09:51:32.894Z,810.58
2019-03-05T09:52:32.904Z,810.60
2019-03-05T09:53:32.914Z,810.58
2019-03-05T09:54:32.924Z,810.58
2019-03-05T09:55:32.929Z,810.60
2019-03-05T09:56:32.938Z,810.61
2019-03-05T09:57:32.951Z,810.56
2019-03-05T09:58:32.959Z,810.60
2019-03-05T09:59:32.967Z,810.60
2019-03-05T10:00:32.979Z,810.59
2019-03-05T10:01:32.985Z,810.61
2019-03-05T10:02:32.993Z,810.62
2019-03-05T10:03:33.008Z,810.59
2019-03-05T10:04:33.019Z,810.58
2019-03-05T10:05:33.030Z,810.63
2019-03-05T10:06:33.031Z,810.63
2019-03-05T10:07:33.044Z,810.62
2019-03-05T10:08:33.102Z,810.68
2019-03-05T10:09:33.065Z,810.63
2019-03-05T10:10:33.075Z,810.58
2019-03-05T10:11:33.083Z,810.59
2019-03-05T10:12:33.091Z,810.60
2019-03-05T10:13:33.102Z,810.56
2019-03-05T10:14:33.110Z,810.60
2019-03-05T10:15:33.120Z,810.63
2019-03-05T10:16:33.141Z,810.58
2019-03-05T10:17:37.801Z,810.65
2019-03-05T10:18:33.153Z,810.66
2019-03-05T10:19:33.164Z,810.62
2019-03-05T10:20:33.176Z,810.65
2019-03-05T10:21:33.184Z,810.67
2019-03-05T10:22:33.190Z,810.66
2019-03-05T10:23:33.204Z,810.61
2019-03-05T10:24:33.211Z,810.63
2019-03-05T10:25:33.225Z,810.66
2019-03-05T10:26:33.235Z,810.69
2019-03-05T10:27:33.248Z,810.65
2019-03-05T10:28:33.253Z,810.68
2019-03-05T10:29:33.269Z,810.63
2019-03-05T10:30:33.288Z,810.59
2019-03-05T10:31:33.414Z,810.60
2019-03-05T10:32:33.296Z,810.57
2019-03-05T10:33:33.314Z,810.54
2019-03-05T10:34:33.316Z,810.61
2019-03-05T10:35:33.335Z,810.58
2019-03-05T10:36:33.342Z,810.62
2019-03-05T10:37:33.351Z,810.62
2019-03-05T10:38:33.360Z,810.59
2019-03-05T10:39:33.374Z,810.60
2019-03-05T10:40:33.389Z,810.63
2019-03-05T10:41:33.401Z,810.59
2019-03-05T10:42:33.416Z,810.62
2019-03-05T10:43:33.422Z,810.59
2019-03-05T10:44:33.432Z,810.59
2019-03-05T10:45:33.446Z,810.63
2019-03-05T10:46:33.458Z,810.58
2019-03-05T10:47:33.472Z,810.60
2019-03-05T10:48:33.481Z,810.63
2019-03-05T10:49:33.494Z,810.62
2019-03-05T10:50:33.509Z,810.59
2019-03-05T10:51:33.515Z,810.62
2019-03-05T10:52:33.526Z,810.56
2019-03-05T10:53:33.540Z,810.58
2019-03-05T10:54:33.550Z,810.62
2019-03-05T10:55:33.559Z,810.59
2019-03-05T10:56:33.572Z,810.59
2019-03-05T10:57:33.584Z,810.59
2019-03-05T10:58:34.496Z,810.57
2019-03-05T10:59:33.608Z,810.57
2019-03-05T11:00:33.620Z,810.49
2019-03-05T11:01:33.631Z,810.49
2019-03-05T11:02:33.707Z,810.50
2019-03-05T11:03:33.661Z,810.50
2019-03-05T11:04:33.668Z,810.57
2019-03-05T11:05:33.682Z,810.60
2019-03-05T11:06:33.695Z,810.57
2019-03-05T11:07:33.710Z,810.61
2019-03-05T11:08:33.714Z,810.64
2019-03-05T11:09:33.725Z,810.60
2019-03-05T11:10:33.736Z,810.57
2019-03-05T11:11:33.748Z,810.63
2019-03-05T11:12:33.764Z,810.64
2019-03-05T11:13:33.775Z,810.63
2019-03-05T11:14:33.790Z,810.66
2019-03-05T11:15:33.803Z,810.65
2019-03-05T11:16:33.811Z,810.68
2019-03-05T11:17:33.822Z,810.65
2019-03-05T11:18:33.836Z,810.67
2019-03-05T11:19:33.844Z,810.69
2019-03-05T11:20:33.863Z,810.61
2019-03-05T11:21:33.867Z,810.62
2019-03-05T11:22:33.882Z,810.63
2019-03-05T11:23:33.890Z,810.56
2019-03-05T11:24:33.902Z,810.63
2019-03-05T11:25:33.914Z,810.67
2019-03-05T11:26:33.929Z,810.67
2019-03-05T11:27:33.938Z,810.61
2019-03-05T11:28:33.956Z,810.60
2019-03-05T11:29:33.971Z,810.59
2019-03-05T11:30:36.405Z,810.61
2019-03-05T11:31:33.986Z,810.64
2019-03-05T11:32:34.004Z,810.62
2019-03-05T11:33:34.011Z,810.65
2019-03-05T11:34:34.025Z,810.55
2019-03-05T11:35:34.034Z,810.53
2019-03-05T11:36:34.050Z,810.51
2019-03-05T11:37:34.061Z,810.56
2019-03-05T11:38:34.090Z,810.56
2019-03-05T11:39:34.086Z,810.50
2019-03-05T11:40:34.096Z,810.48
2019-03-05T11:41:34.116Z,810.45
2019-03-05T11:42:34.123Z,810.44
2019-03-05T11:43:34.137Z,810.50
2019-03-05T11:44:34.144Z,810.54
2019-03-05T11:45:34.160Z,810.57
2019-03-05T11:46:34.176Z,810.52
2019-03-05T11:47:34.183Z,810.58
2019-03-05T11:48:34.198Z,810.64
2019-03-05T11:49:34.206Z,810.65
2019-03-05T11:50:34.221Z,810.69
2019-03-05T11:51:34.235Z,810.64
2019-03-05T11:52:34.244Z,810.73
2019-03-05T11:53:34.256Z,810.73
2019-03-05T11:54:34.269Z,810.74
2019-03-05T11:55:34.280Z,810.73
2019-03-05T11:56:34.293Z,810.79
2019-03-05T11:57:34.305Z,810.78
2019-03-05T11:58:34.312Z,810.74
2019-03-05T11:59:34.329Z,810.70
2019-03-05T12:00:34.335Z,810.68
2019-03-05T12:01:34.356Z,810.64
2019-03-05T12:02:34.364Z,810.57
2019-03-05T12:03:34.376Z,810.54
2019-03-05T12:04:34.387Z,810.52
2019-03-05T12:05:34.395Z,810.54
2019-03-05T12:06:34.408Z,810.57
2019-03-05T12:07:34.427Z,810.60
2019-03-05T12:08:34.434Z,810.60
2019-03-05T12:09:34.445Z,810.60
2019-03-05T12:10:34.457Z,810.54
2019-03-05T12:11:34.466Z,810.54
2019-03-05T12:12:34.478Z,810.58
2019-03-05T12:13:34.494Z,810.55
2019-03-05T12:14:34.507Z,810.51
2019-03-05T12:15:34.516Z,810.45
2019-03-05T12:16:34.527Z,810.39
2019-03-05T12:17:34.537Z,810.40
2019-03-05T12:18:34.552Z,810.49
2019-03-05T12:19:34.564Z,810.42
2019-03-05T12:20:34.573Z,810.35
2019-03-05T12:21:34.586Z,810.35
2019-03-05T12:22:34.604Z,810.41
2019-03-05T12:23:34.612Z,810.40
2019-03-05T12:24:34.624Z,810.42
2019-03-05T12:25:36.196Z,810.38
2019-03-05T12:26:34.647Z,810.40
2019-03-05T12:27:35.905Z,810.38
2019-03-05T12:28:34.681Z,810.40